Bahri Jazan — HZFI — position and weather

sailwx.info

Track history (hours):
 
Tides and Currents Weather Stations Pressure Air Temp Water Temp Dewpoint Dewpoint Depression Visibility Wind Speed Wind Dir Waves Ship Positions

Bahri Jazan

Last reported at 2018-Jun-18 15:00 UTC. Time now 2018-Jun-18 15:08 UTC.
Position N 49°27' E 000°10'.

Length 225 m; draft 7.8 m.

Type: Ship. MMSI: 403533001.

Date/timePositionNaut miles runAvg speedWind from/ knotsBaromVisibWave heightAir tempDewpointWater temp
2018-Jun-18 15:00N 49°27' E 000°10'0 0.0
2018-Jun-18 14:30N 49°27' E 000°10'0 0.0
2018-Jun-18 14:00N 49°27' E 000°10'0 0.0
2018-Jun-18 13:30N 49°27' E 000°10'0 0.0
2018-Jun-18 13:00N 49°27' E 000°10'0 0.0
2018-Jun-18 12:30N 49°27' E 000°10'0 0.0
2018-Jun-18 12:00N 49°27' E 000°10'0 0.0
2018-Jun-18 11:30N 49°27' E 000°10'0 0.2
2018-Jun-18 11:00N 49°27' E 000°10'3 5.4
2018-Jun-18 10:30N 49°28' E 000°06'1 2.8
2018-Jun-18 10:00N 49°28' E 000°08'1 2.9
2018-Jun-18 09:30N 49°29' E 000°10'0 0.2
2018-Jun-18 09:00N 49°29' E 000°11'0 0.4
2018-Jun-18 08:30N 49°29' E 000°11'0 0.0
2018-Jun-18 08:01N 49°29' E 000°11'0 0.0
2018-Jun-18 07:30N 49°29' E 000°11'0 0.0
2018-Jun-18 07:01N 49°29' E 000°11'0 0.0
2018-Jun-18 06:31N 49°29' E 000°11'0 0.0
2018-Jun-18 06:01N 49°29' E 000°11'0 0.0
2018-Jun-18 05:30N 49°29' E 000°11'0 0.0
2018-Jun-18 05:01N 49°29' E 000°11'0 0.0
2018-Jun-18 04:30N 49°29' E 000°11'0 0.0
2018-Jun-18 04:00N 49°29' E 000°11'0 0.0
2018-Jun-18 03:31N 49°29' E 000°11'0 0.0
2018-Jun-18 03:01N 49°29' E 000°11'0 0.0
2018-Jun-18 02:31N 49°29' E 000°11'0 0.0
2018-Jun-18 01:58N 49°29' E 000°11'0 0.0
2018-Jun-18 01:30N 49°29' E 000°11'0 0.0
2018-Jun-18 01:01N 49°29' E 000°11'0 0.0
2018-Jun-18 00:31N 49°29' E 000°11'0 0.0
2018-Jun-18 00:01N 49°29' E 000°11'0 0.0
2018-Jun-17 23:31N 49°29' E 000°11'0 0.0
2018-Jun-17 22:58N 49°29' E 000°11'0 0.0
2018-Jun-17 22:31N 49°29' E 000°11'0 0.0
2018-Jun-17 22:00N 49°29' E 000°11'0 0.0
2018-Jun-17 21:31N 49°29' E 000°11'0 0.0
2018-Jun-17 21:01N 49°29' E 000°11'0 0.0
2018-Jun-17 20:30N 49°29' E 000°11'0 0.0
2018-Jun-17 20:01N 49°29' E 000°11'0 0.0
2018-Jun-17 19:28N 49°29' E 000°11'0 0.0
2018-Jun-17 18:57N 49°29' E 000°11'0 0.0
2018-Jun-17 18:31N 49°29' E 000°11'0 0.5
2018-Jun-17 18:00N 49°29' E 000°10'0 0.1
2018-Jun-17 17:30N 49°29' E 000°10'1 2.3
2018-Jun-17 17:00N 49°28' E 000°09'4 8.6
2018-Jun-17 16:30N 49°30' E 000°02'510.7
2018-Jun-17 16:00N 49°31' W 000°06'2 4.9
2018-Jun-17 15:30N 49°33' W 000°08'0 0.1
2018-Jun-17 15:00N 49°33' W 000°07'0 0.0
2018-Jun-17 14:30N 49°33' W 000°07'0 0.0
2018-Jun-17 14:00N 49°33' W 000°07'0 0.0
2018-Jun-17 13:30N 49°33' W 000°07'0 0.0
2018-Jun-17 13:00N 49°33' W 000°07'0 0.0
2018-Jun-17 12:30N 49°33' W 000°07'0 0.0
2018-Jun-17 12:00N 49°33' W 000°07'0 0.0
2018-Jun-17 11:30N 49°33' W 000°07'0 0.0
2018-Jun-17 11:00N 49°33' W 000°07'0 0.0
2018-Jun-17 10:30N 49°33' W 000°07'0 0.3
2018-Jun-17 10:01N 49°33' W 000°08'3 6.5
2018-Jun-17 09:31N 49°33' W 000°13'5 9.4
2018-Jun-17 09:00N 49°35' W 000°20'5 9.4
2018-Jun-17 08:31N 49°36' W 000°26'4 8.9
2018-Jun-17 08:01N 49°38' W 000°32'4 8.3
2018-Jun-17 07:31N 49°41' W 000°38'4 7.7
2018-Jun-17 07:01N 49°43' W 000°43'3 6.9
2018-Jun-17 06:31N 49°45' W 000°46'4 7.7
2018-Jun-17 06:01N 49°49' W 000°46'611.9
2018-Jun-17 05:30N 49°55' W 000°44'612.2
2018-Jun-17 05:00N 50°01' W 000°43'612.5
2018-Jun-17 04:30N 50°05' W 000°35'714.3
2018-Jun-17 04:00N 50°08' W 000°25'713.9
2018-Jun-17 03:30N 50°11' W 000°15'612.9
2018-Jun-17 03:00N 50°13' W 000°06'611.8
2018-Jun-17 02:30N 50°19' W 000°03'611.9
2018-Jun-17 01:59N 50°25' W 000°03'1410.2
2018-Jun-17 00:34N 50°32' E 000°17'110.1
2018-Jun-17 00:30N 50°32' E 000°18'510.0
2018-Jun-16 23:59N 50°33' E 000°26'5 9.6
2018-Jun-16 23:30N 50°34' E 000°33'4 9.2
2018-Jun-16 23:00N 50°37' E 000°39'5 9.6
2018-Jun-16 22:30N 50°39' E 000°45'510.3
2018-Jun-16 22:00N 50°42' E 000°52'611.1
2018-Jun-16 21:30N 50°45' E 000°59'612.1
2018-Jun-16 21:00N 50°49' E 001°07'613.0
2018-Jun-16 20:30N 50°53' E 001°15'713.9
2018-Jun-16 20:01N 50°58' E 001°22'713.7
2018-Jun-16 19:30N 51°03' E 001°29'612.7
2018-Jun-16 19:00N 51°08' E 001°35'611.1
2018-Jun-16 18:30N 51°14' E 001°38'611.7
2018-Jun-16 18:00N 51°19' E 001°36'612.0
2018-Jun-16 17:30N 51°25' E 001°32'611.4
2018-Jun-16 17:01N 51°28' E 001°24'816.0
2018-Jun-16 16:31N 51°29' E 001°12'815.7
2018-Jun-16 16:00N 51°29' E 000°59'917.5
2018-Jun-16 15:30N 51°30' E 000°45'714.8
2018-Jun-16 15:01N 51°30' E 000°33'611.1
2018-Jun-16 14:30N 51°27' E 000°26'4 7.3
2018-Jun-16 14:00N 51°27' E 000°20'0 0.1
2018-Jun-16 13:31N 51°27' E 000°20'0 0.0
2018-Jun-16 13:00N 51°27' E 000°20'0 0.0
2018-Jun-16 12:31N 51°27' E 000°20'0 0.0
2018-Jun-16 12:00N 51°27' E 000°20'0 0.0
2018-Jun-16 11:30N 51°27' E 000°20'0 0.0
2018-Jun-16 11:00N 51°27' E 000°20'0 0.0
2018-Jun-16 10:30N 51°27' E 000°20'0 0.0
2018-Jun-16 10:00N 51°27' E 000°20'0 0.0
2018-Jun-16 09:30N 51°27' E 000°20'0 0.0
2018-Jun-16 09:01N 51°27' E 000°20'0 0.0
2018-Jun-16 08:31N 51°27' E 000°20'0 0.0
2018-Jun-16 08:01N 51°27' E 000°20'0 0.0
2018-Jun-16 07:30N 51°27' E 000°20'0 0.0
2018-Jun-16 07:00N 51°27' E 000°20'0 0.0
2018-Jun-16 06:31N 51°27' E 000°20'0 0.0
2018-Jun-16 06:01N 51°27' E 000°20'0 0.0
2018-Jun-16 05:31N 51°27' E 000°20'1 1.9
2018-Jun-16 05:01N 51°27' E 000°21'3 6.1
2018-Jun-16 04:31N 51°27' E 000°26'5 9.6
2018-Jun-16 04:00N 51°30' E 000°32'713.4
2018-Jun-16 03:30N 51°30' E 000°43'712.9
2018-Jun-16 03:00N 51°29' E 000°53'612.9
2018-Jun-16 02:31N 51°31' E 001°03'714.9
2018-Jun-16 02:00N 51°34' E 001°14'714.7
2018-Jun-16 01:31N 51°39' E 001°23'714.5
2018-Jun-16 01:00N 51°45' E 001°30'714.5
2018-Jun-16 00:30N 51°51' E 001°36'510.4
2018-Jun-16 00:00N 51°52' E 001°44'3 6.4
2018-Jun-15 23:30N 51°51' E 001°49'612.3
2018-Jun-15 23:00N 51°45' E 001°49'612.6
2018-Jun-15 22:30N 51°39' E 001°51'612.4
2018-Jun-15 22:00N 51°32' E 001°51'611.1
2018-Jun-15 21:30N 51°28' E 001°56'612.2
2018-Jun-15 21:00N 51°25' E 002°04'612.8
2018-Jun-15 20:30N 51°22' E 002°14'612.9
2018-Jun-15 20:00N 51°21' E 002°24'713.3
2018-Jun-15 19:30N 51°22' E 002°35'611.9
2018-Jun-15 19:00N 51°22' E 002°44'510.8
2018-Jun-15 18:30N 51°22' E 002°53'816.1
2018-Jun-15 18:00N 51°24' E 003°05'917.2
2018-Jun-15 17:30N 51°24' E 003°19'816.7
2018-Jun-15 17:00N 51°26' E 003°32'611.7
2018-Jun-15 16:30N 51°25' E 003°42'612.7
2018-Jun-15 16:00N 51°21' E 003°49'611.5
2018-Jun-15 15:30N 51°24' E 003°57'3 6.6
2018-Jun-15 15:00N 51°25' E 004°02'4 8.1
2018-Jun-15 14:30N 51°22' E 004°07'4 7.4
2018-Jun-15 14:01N 51°23' E 004°13'4 8.8
2018-Jun-15 13:30N 51°19' E 004°16'3 5.6
2018-Jun-15 13:00N 51°16' E 004°17'0 0.5
2018-Jun-15 12:31N 51°16' E 004°17'0 0.8
2018-Jun-15 12:00N 51°16' E 004°16'1 2.6
2018-Jun-15 11:30N 51°16' E 004°14'0 0.4
2018-Jun-15 10:58N 51°15' E 004°14'0 0.0
2018-Jun-15 10:22N 51°15' E 004°14'0 0.0
2018-Jun-15 09:58N 51°15' E 004°14'0 0.0
2018-Jun-15 09:28N 51°15' E 004°14'0 0.0
2018-Jun-15 08:55N 51°15' E 004°14'0 0.0
2018-Jun-15 08:28N 51°15' E 004°14'0 0.0
2018-Jun-15 07:58N 51°15' E 004°14'0 0.0
2018-Jun-15 07:28N 51°15' E 004°14'0 0.0
2018-Jun-15 06:58N 51°15' E 004°14'0 0.0
2018-Jun-15 06:28N 51°15' E 004°14'0 0.0
2018-Jun-15 05:58N 51°15' E 004°14'0 0.0
2018-Jun-15 05:28N 51°15' E 004°14'0 0.0
2018-Jun-15 04:58N 51°15' E 004°14'0 0.0
2018-Jun-15 04:28N 51°15' E 004°14'0 0.0
2018-Jun-15 03:58N 51°15' E 004°14'0 0.0
2018-Jun-15 03:28N 51°15' E 004°14'0 0.0
2018-Jun-15 02:58N 51°15' E 004°14'0 0.0
2018-Jun-15 02:28N 51°15' E 004°14'0 0.0
2018-Jun-15 01:55N 51°15' E 004°14'0 0.0
2018-Jun-15 01:28N 51°15' E 004°14'0 0.0
2018-Jun-15 00:58N 51°15' E 004°14'0 0.0
2018-Jun-15 00:25N 51°15' E 004°14'0 0.0
2018-Jun-14 23:58N 51°15' E 004°14'0 0.0
2018-Jun-14 23:28N 51°15' E 004°14'0 0.0
2018-Jun-14 22:58N 51°15' E 004°14'0 0.0
2018-Jun-14 22:28N 51°15' E 004°14'0 0.0
2018-Jun-14 21:55N 51°15' E 004°14'0 0.0
2018-Jun-14 21:28N 51°15' E 004°14'0 0.0
2018-Jun-14 20:58N 51°15' E 004°14'0 0.0
2018-Jun-14 20:28N 51°15' E 004°14'0 0.0
2018-Jun-14 19:58N 51°15' E 004°14'0 0.0
2018-Jun-14 19:28N 51°15' E 004°14'0 0.0
2018-Jun-14 18:58N 51°15' E 004°14'0 0.0
2018-Jun-14 18:28N 51°15' E 004°14'0 0.0
2018-Jun-14 17:58N 51°15' E 004°14'0 0.0
2018-Jun-14 17:28N 51°15' E 004°14'0 0.0
2018-Jun-14 16:58N 51°15' E 004°14'0 0.0
2018-Jun-14 16:28N 51°15' E 004°14'0 0.0
2018-Jun-14 15:58N 51°15' E 004°14'0 0.0
2018-Jun-14 15:28N 51°15' E 004°14'0 0.0
2018-Jun-14 14:58N 51°15' E 004°14'0 0.0
2018-Jun-14 14:28N 51°15' E 004°14'0 0.0
2018-Jun-14 13:58N 51°15' E 004°14'0 0.0
2018-Jun-14 13:28N 51°15' E 004°14'0 0.0
2018-Jun-14 12:58N 51°15' E 004°14'0 0.0
2018-Jun-14 12:28N 51°15' E 004°14'0 0.0
2018-Jun-14 11:58N 51°15' E 004°14'0 0.0
2018-Jun-14 11:28N 51°15' E 004°14'0 0.0
2018-Jun-14 10:58N 51°15' E 004°14'0 0.0
2018-Jun-14 10:28N 51°15' E 004°14'0 0.0
2018-Jun-14 09:58N 51°15' E 004°14'0 0.0
2018-Jun-14 09:28N 51°15' E 004°14'0 0.0
2018-Jun-14 08:58N 51°15' E 004°14'0 0.0
2018-Jun-14 08:28N 51°15' E 004°14'0 0.0
2018-Jun-14 07:58N 51°15' E 004°14'0 0.0
2018-Jun-14 07:28N 51°15' E 004°14'0 0.0
2018-Jun-14 06:58N 51°15' E 004°14'0 0.0
2018-Jun-14 06:28N 51°15' E 004°14'0 0.0
2018-Jun-14 05:58N 51°15' E 004°14'0 0.0
2018-Jun-14 05:28N 51°15' E 004°14'0 0.0
2018-Jun-14 04:58N 51°15' E 004°14'0 0.0
2018-Jun-14 04:28N 51°15' E 004°14'0 0.0
2018-Jun-14 03:58N 51°15' E 004°14'0 0.0
2018-Jun-14 03:28N 51°15' E 004°14'0 0.0
2018-Jun-14 02:58N 51°15' E 004°14'0 0.0
2018-Jun-14 02:28N 51°15' E 004°14'0 0.0
2018-Jun-14 01:58N 51°15' E 004°14'0 0.0
2018-Jun-14 01:28N 51°15' E 004°14'0 1.0
2018-Jun-14 01:00N 51°16' E 004°14'1 2.1
2018-Jun-14 00:31N 51°17' E 004°15'0 0.0
2018-Jun-14 00:01N 51°17' E 004°15'0 0.0
2018-Jun-13 23:31N 51°17' E 004°15'2 3.3
2018-Jun-13 23:01N 51°18' E 004°16'4 8.2
2018-Jun-13 22:31N 51°22' E 004°13'4 8.5
2018-Jun-13 22:00N 51°22' E 004°07'612.1
2018-Jun-13 21:30N 51°26' E 003°59'713.7
2018-Jun-13 21:00N 51°21' E 003°52'713.3
2018-Jun-13 20:30N 51°24' E 003°43'510.6
2018-Jun-13 20:00N 51°26' E 003°35'714.5
2018-Jun-13 19:30N 51°24' E 003°23'612.9
2018-Jun-13 19:00N 51°24' E 003°13'612.1
2018-Jun-13 18:30N 51°24' E 003°03'4 8.3
2018-Jun-13 18:00N 51°28' E 003°01'611.5
2018-Jun-13 17:31N 51°33' E 003°07'815.1
2018-Jun-13 17:01N 51°40' E 003°12'510.9
2018-Jun-13 16:30N 51°45' E 003°15'714.0
2018-Jun-13 16:00N 51°52' E 003°18'713.9
2018-Jun-13 15:30N 51°59' E 003°20'611.6
2018-Jun-13 15:00N 52°04' E 003°21'510.8
2018-Jun-13 14:30N 52°10' E 003°22'510.7
2018-Jun-13 14:00N 52°15' E 003°24'510.7
2018-Jun-13 13:30N 52°20' E 003°25'511.1
2018-Jun-13 13:00N 52°26' E 003°26'611.6
2018-Jun-13 12:30N 52°31' E 003°28'612.5
2018-Jun-13 12:00N 52°37' E 003°32'713.8
2018-Jun-13 11:30N 52°43' E 003°39'814.5
2018-Jun-13 10:58N 52°48' E 003°47'715.8
2018-Jun-13 10:30N 52°54' E 003°55'1316.2
2018-Jun-13 09:41N 53°03' E 004°12'316.0
2018-Jun-13 09:30N 53°04' E 004°16'816.0
2018-Jun-13 09:00N 53°11' E 004°23'816.6
2018-Jun-13 08:30N 53°19' E 004°29'816.3
2018-Jun-13 08:00N 53°26' E 004°36'714.8
2018-Jun-13 07:30N 53°30' E 004°45'714.6
2018-Jun-13 07:01N 53°33' E 004°57'714.4
2018-Jun-13 06:30N 53°36' E 005°08'714.2
2018-Jun-13 06:00N 53°38' E 005°19'714.5
2018-Jun-13 05:30N 53°40' E 005°31'8513.9
2018-Jun-12 23:21N 53°52' E 007°54'513.9
2018-Jun-12 23:00N 53°51' E 008°02'714.5
2018-Jun-12 22:30N 53°46' E 008°11'713.9
2018-Jun-12 22:00N 53°42' E 008°20'612.8
2018-Jun-12 21:30N 53°38' E 008°28'4 8.5
2018-Jun-12 21:00N 53°34' E 008°32'0 0.9
2018-Jun-12 20:30N 53°34' E 008°33'0 0.7
2018-Jun-12 20:00N 53°35' E 008°33'0 0.2
2018-Jun-12 19:29N 53°35' E 008°33'0 0.0
2018-Jun-12 18:59N 53°35' E 008°33'0 0.0
2018-Jun-12 18:29N 53°35' E 008°33'0 0.0
2018-Jun-12 17:59N 53°35' E 008°33'0 0.0
2018-Jun-12 17:29N 53°35' E 008°33'0 0.0
2018-Jun-12 16:59N 53°35' E 008°33'0 0.0
2018-Jun-12 16:29N 53°35' E 008°33'0 0.0
2018-Jun-12 15:59N 53°35' E 008°33'0 0.0
2018-Jun-12 15:29N 53°35' E 008°33'0 0.0
2018-Jun-12 14:59N 53°35' E 008°33'0 0.0
2018-Jun-12 14:29N 53°35' E 008°33'0 0.0
2018-Jun-12 13:59N 53°35' E 008°33'0 0.0
2018-Jun-12 13:29N 53°35' E 008°33'0 0.0
2018-Jun-12 12:59N 53°35' E 008°33'0 0.0
2018-Jun-12 12:29N 53°35' E 008°33'0 0.0
2018-Jun-12 11:59N 53°35' E 008°33'0 0.0
2018-Jun-12 11:29N 53°35' E 008°33'0 0.0
2018-Jun-12 10:59N 53°35' E 008°33'0 0.0
2018-Jun-12 10:29N 53°35' E 008°33'0 0.0
2018-Jun-12 09:59N 53°35' E 008°33'0 0.0
2018-Jun-12 09:29N 53°35' E 008°33'0 0.0
2018-Jun-12 08:59N 53°35' E 008°33'0 0.0
2018-Jun-12 08:29N 53°35' E 008°33'0 0.0
2018-Jun-12 07:59N 53°35' E 008°33'0 0.0
2018-Jun-12 07:29N 53°35' E 008°33'0 0.0
2018-Jun-12 06:59N 53°35' E 008°33'0 0.0
2018-Jun-12 06:29N 53°35' E 008°33'0 0.0
2018-Jun-12 05:59N 53°35' E 008°33'0 0.0
2018-Jun-12 05:29N 53°35' E 008°33'0 0.0
2018-Jun-12 04:59N 53°35' E 008°33'0 0.0
2018-Jun-12 04:29N 53°35' E 008°33'0 0.0
2018-Jun-12 03:59N 53°35' E 008°33'0 0.0
2018-Jun-12 03:29N 53°35' E 008°33'0 0.0
2018-Jun-12 02:59N 53°35' E 008°33'0 0.0
2018-Jun-12 02:29N 53°35' E 008°33'0 0.0
2018-Jun-12 01:59N 53°35' E 008°33'0 0.0
2018-Jun-12 01:29N 53°35' E 008°33'0 0.0
2018-Jun-12 00:59N 53°35' E 008°33'0 0.0
2018-Jun-12 00:29N 53°35' E 008°33'0 0.0
2018-Jun-11 23:59N 53°35' E 008°33'0 0.0
2018-Jun-11 23:29N 53°35' E 008°33'0 0.0
2018-Jun-11 22:59N 53°35' E 008°33'0 0.0
2018-Jun-11 22:29N 53°35' E 008°33'0 0.0
2018-Jun-11 21:59N 53°35' E 008°33'0 0.0
2018-Jun-11 21:29N 53°35' E 008°33'0 0.0
2018-Jun-11 20:59N 53°35' E 008°33'0 0.0
2018-Jun-11 20:29N 53°35' E 008°33'0 0.0
2018-Jun-11 19:59N 53°35' E 008°33'0 0.0
2018-Jun-11 19:29N 53°35' E 008°33'0 0.0
2018-Jun-11 18:59N 53°35' E 008°33'0 0.0
2018-Jun-11 18:29N 53°35' E 008°33'0 0.0
2018-Jun-11 17:59N 53°35' E 008°33'0 0.0
2018-Jun-11 17:29N 53°35' E 008°33'0 0.0
2018-Jun-11 16:59N 53°35' E 008°33'0 0.0
2018-Jun-11 16:29N 53°35' E 008°33'0 1.0
2018-Jun-11 16:01N 53°34' E 008°33'0 0.0
2018-Jun-11 15:31N 53°34' E 008°33'0 0.8
2018-Jun-11 15:00N 53°34' E 008°32'3 6.9
2018-Jun-11 14:30N 53°37' E 008°29'510.8
2018-Jun-11 14:00N 53°41' E 008°22'712.4
2018-Jun-11 13:28N 53°45' E 008°13'511.7
2018-Jun-11 13:01N 53°49' E 008°07'611.9
2018-Jun-11 12:30N 53°51' E 007°58'510.9
2018-Jun-11 12:00N 53°52' E 007°49'3 5.0
2018-Jun-11 11:28N 53°55' E 007°47'0 0.5
2018-Jun-11 10:58N 53°54' E 007°47'0 0.0
2018-Jun-11 09:43N 53°54' E 007°47'0 0.0
2018-Jun-11 09:19N 53°54' E 007°47'0 0.0
2018-Jun-11 06:07N 53°54' E 007°47'0 0.2
2018-Jun-11 05:58N 53°54' E 007°47'0 0.0
2018-Jun-11 05:16N 53°54' E 007°47'0 0.0
2018-Jun-11 04:55N 53°54' E 007°47'0 0.0
2018-Jun-11 04:01N 53°54' E 007°47'0 0.0
2018-Jun-11 03:49N 53°54' E 007°47'0 0.0
2018-Jun-11 03:28N 53°54' E 007°47'0 0.0
2018-Jun-11 02:55N 53°54' E 007°47'0 0.0
2018-Jun-11 02:28N 53°54' E 007°47'0 0.0
2018-Jun-11 01:58N 53°54' E 007°47'0 0.0
2018-Jun-10 23:58N 53°54' E 007°47'0 0.0
2018-Jun-10 22:25N 53°54' E 007°47'0 0.0
2018-Jun-10 21:34N 53°54' E 007°47'0 0.1
2018-Jun-10 21:28N 53°54' E 007°47'0 0.0
2018-Jun-10 19:46N 53°54' E 007°47'0 0.0
2018-Jun-10 19:10N 53°54' E 007°47'0 0.1
2018-Jun-10 18:49N 53°54' E 007°47'0 0.1
2018-Jun-10 18:22N 53°54' E 007°47'0 0.0
2018-Jun-10 17:49N 53°54' E 007°47'0 0.0
2018-Jun-10 17:22N 53°54' E 007°47'0 0.0
2018-Jun-10 16:52N 53°54' E 007°47'0 0.0
2018-Jun-10 16:25N 53°54' E 007°47'0 0.0
2018-Jun-10 15:37N 53°54' E 007°47'0 0.0
2018-Jun-10 15:25N 53°54' E 007°47'0 0.1
2018-Jun-10 14:58N 53°54' E 007°47'0 0.0
2018-Jun-10 13:58N 53°54' E 007°47'0 0.3
2018-Jun-10 13:29N 53°55' E 007°47'3 5.7
2018-Jun-10 12:59N 53°55' E 007°42'611.5
2018-Jun-10 12:30N 53°54' E 007°32'1811.4
2018-Jun-10 10:55N 53°50' E 007°03'511.4
2018-Jun-10 10:29N 53°49' E 006°54'611.6
2018-Jun-10 09:58N 53°48' E 006°45'711.7
2018-Jun-10 09:25N 53°47' E 006°34'611.6
2018-Jun-10 08:55N 53°45' E 006°24'611.7
2018-Jun-10 08:25N 53°43' E 006°15'512.0
2018-Jun-10 08:00N 53°42' E 006°07'612.1
2018-Jun-10 07:30N 53°40' E 005°57'612.3
2018-Jun-10 07:00N 53°38' E 005°47'612.4
2018-Jun-10 06:30N 53°36' E 005°37'612.6
2018-Jun-10 06:00N 53°34' E 005°27'612.6
2018-Jun-10 05:30N 53°33' E 005°17'612.6
2018-Jun-10 05:00N 53°31' E 005°07'612.8
2018-Jun-10 04:30N 53°28' E 004°57'713.0
2018-Jun-10 04:00N 53°25' E 004°47'612.4
2018-Jun-10 03:30N 53°21' E 004°40'712.9
2018-Jun-10 03:00N 53°15' E 004°35'713.2
2018-Jun-10 02:27N 53°09' E 004°29'613.1
2018-Jun-10 02:00N 53°04' E 004°24'713.3
2018-Jun-10 01:30N 52°58' E 004°19'713.4
2018-Jun-10 01:00N 52°52' E 004°15'713.5
2018-Jun-10 00:30N 52°46' E 004°09'713.5
2018-Jun-10 00:00N 52°40' E 004°03'713.4
2018-Jun-09 23:30N 52°35' E 003°57'713.4
2018-Jun-09 23:00N 52°28' E 003°54'713.5
2018-Jun-09 22:30N 52°21' E 003°52'713.1
2018-Jun-09 22:00N 52°15' E 003°53'612.8
2018-Jun-09 21:30N 52°09' E 003°54'611.5
2018-Jun-09 21:01N 52°03' E 003°52'5 9.1
2018-Jun-09 20:30N 52°01' E 003°58'612.6
2018-Jun-09 20:00N 51°58' E 004°07'611.2
2018-Jun-09 19:30N 51°55' E 004°15'4 8.7
2018-Jun-09 19:01N 51°54' E 004°21'2 4.5
2018-Jun-09 18:31N 51°53' E 004°25'0 0.1
2018-Jun-09 18:00N 51°53' E 004°25'0 0.0
2018-Jun-09 17:30N 51°53' E 004°25'0 0.0
2018-Jun-09 17:00N 51°53' E 004°25'0 0.0
2018-Jun-09 16:30N 51°53' E 004°25'0 0.0
2018-Jun-09 16:00N 51°53' E 004°25'0 0.0
2018-Jun-09 15:30N 51°53' E 004°25'0 0.0
2018-Jun-09 14:30N 51°53' E 004°25'0 0.0
2018-Jun-09 14:00N 51°53' E 004°25'0 0.0
2018-Jun-09 13:30N 51°53' E 004°25'0 0.0
2018-Jun-09 13:00N 51°53' E 004°25'0 0.0
2018-Jun-09 12:30N 51°53' E 004°25'0 0.0
2018-Jun-09 12:00N 51°53' E 004°25'0 0.0
2018-Jun-09 11:30N 51°53' E 004°25'0 0.0
2018-Jun-09 11:00N 51°53' E 004°25'0 0.0
2018-Jun-09 10:30N 51°53' E 004°25'0 0.0
2018-Jun-09 10:00N 51°53' E 004°25'0 0.0
2018-Jun-09 09:30N 51°53' E 004°25'0 0.0
2018-Jun-09 09:00N 51°53' E 004°25'0 0.0
2018-Jun-09 08:30N 51°53' E 004°25'0 0.0
2018-Jun-09 08:00N 51°53' E 004°25'0 0.0
2018-Jun-09 07:30N 51°53' E 004°25'0 0.0
2018-Jun-09 07:00N 51°53' E 004°25'0 0.0
2018-Jun-09 06:30N 51°53' E 004°25'0 0.0
2018-Jun-09 06:00N 51°53' E 004°25'0 0.0
2018-Jun-09 05:30N 51°53' E 004°25'0 0.0
2018-Jun-09 05:00N 51°53' E 004°25'0 0.0
2018-Jun-09 04:30N 51°53' E 004°25'0 0.0
2018-Jun-09 04:00N 51°53' E 004°25'0 0.0
2018-Jun-09 03:30N 51°53' E 004°25'0 0.0
2018-Jun-09 03:00N 51°53' E 004°25'0 0.0
2018-Jun-09 02:30N 51°53' E 004°25'0 0.0
2018-Jun-09 02:00N 51°53' E 004°25'0 0.0
2018-Jun-09 01:30N 51°53' E 004°25'0 0.0
2018-Jun-09 01:00N 51°53' E 004°25'0 0.0
2018-Jun-09 00:30N 51°53' E 004°25'0 0.0
2018-Jun-09 00:00N 51°53' E 004°25'0 0.0
2018-Jun-08 23:30N 51°53' E 004°25'0 0.0
2018-Jun-08 23:00N 51°53' E 004°25'0 0.0
2018-Jun-08 22:30N 51°53' E 004°25'0 0.0
2018-Jun-08 22:00N 51°53' E 004°25'0 0.0
2018-Jun-08 21:27N 51°53' E 004°25'0 0.0
2018-Jun-08 21:00N 51°53' E 004°25'0 0.0
2018-Jun-08 20:30N 51°53' E 004°25'0 0.0
2018-Jun-08 20:00N 51°53' E 004°25'0 0.0
2018-Jun-08 19:30N 51°53' E 004°25'0 0.0
2018-Jun-08 19:00N 51°53' E 004°25'0 0.0
2018-Jun-08 18:30N 51°53' E 004°25'0 0.0
2018-Jun-08 18:00N 51°53' E 004°25'0 0.0
2018-Jun-08 17:30N 51°53' E 004°25'0 0.0
2018-Jun-08 17:00N 51°53' E 004°25'0 0.0
2018-Jun-08 16:27N 51°53' E 004°25'0 0.0
2018-Jun-08 16:00N 51°53' E 004°25'0 0.0
2018-Jun-08 15:30N 51°53' E 004°25'  
Track history (hours):
 
Tides and Currents Weather Stations Pressure Air Temp Water Temp Dewpoint Dewpoint Depression Visibility Wind Speed Wind Dir Waves Ship Positions

Bahri Jazan

Last reported at 2018-Jun-18 15:00 UTC. Time now 2018-Jun-18 15:08 UTC.
Position N 49°27' E 000°10'.

Length 225 m; draft 7.8 m.

Type: Ship. MMSI: 403533001.

Date/timePositionNaut miles runAvg speedWind from/ knotsBaromVisibWave heightAir tempDewpointWater temp
2018-Jun-18 15:00N 49°27' E 000°10'0 0.0
2018-Jun-18 14:30N 49°27' E 000°10'0 0.0
2018-Jun-18 14:00N 49°27' E 000°10'0 0.0
2018-Jun-18 13:30N 49°27' E 000°10'0 0.0
2018-Jun-18 13:00N 49°27' E 000°10'0 0.0
2018-Jun-18 12:30N 49°27' E 000°10'0 0.0
2018-Jun-18 12:00N 49°27' E 000°10'0 0.0
2018-Jun-18 11:30N 49°27' E 000°10'0 0.2
2018-Jun-18 11:00N 49°27' E 000°10'3 5.4
2018-Jun-18 10:30N 49°28' E 000°06'1 2.8
2018-Jun-18 10:00N 49°28' E 000°08'1 2.9
2018-Jun-18 09:30N 49°29' E 000°10'0 0.2
2018-Jun-18 09:00N 49°29' E 000°11'0 0.4
2018-Jun-18 08:30N 49°29' E 000°11'0 0.0
2018-Jun-18 08:01N 49°29' E 000°11'0 0.0
2018-Jun-18 07:30N 49°29' E 000°11'0 0.0
2018-Jun-18 07:01N 49°29' E 000°11'0 0.0
2018-Jun-18 06:31N 49°29' E 000°11'0 0.0
2018-Jun-18 06:01N 49°29' E 000°11'0 0.0
2018-Jun-18 05:30N 49°29' E 000°11'0 0.0
2018-Jun-18 05:01N 49°29' E 000°11'0 0.0
2018-Jun-18 04:30N 49°29' E 000°11'0 0.0
2018-Jun-18 04:00N 49°29' E 000°11'0 0.0
2018-Jun-18 03:31N 49°29' E 000°11'0 0.0
2018-Jun-18 03:01N 49°29' E 000°11'0 0.0
2018-Jun-18 02:31N 49°29' E 000°11'0 0.0
2018-Jun-18 01:58N 49°29' E 000°11'0 0.0
2018-Jun-18 01:30N 49°29' E 000°11'0 0.0
2018-Jun-18 01:01N 49°29' E 000°11'0 0.0
2018-Jun-18 00:31N 49°29' E 000°11'0 0.0
2018-Jun-18 00:01N 49°29' E 000°11'0 0.0
2018-Jun-17 23:31N 49°29' E 000°11'0 0.0
2018-Jun-17 22:58N 49°29' E 000°11'0 0.0
2018-Jun-17 22:31N 49°29' E 000°11'0 0.0
2018-Jun-17 22:00N 49°29' E 000°11'0 0.0
2018-Jun-17 21:31N 49°29' E 000°11'0 0.0
2018-Jun-17 21:01N 49°29' E 000°11'0 0.0
2018-Jun-17 20:30N 49°29' E 000°11'0 0.0
2018-Jun-17 20:01N 49°29' E 000°11'0 0.0
2018-Jun-17 19:28N 49°29' E 000°11'0 0.0
2018-Jun-17 18:57N 49°29' E 000°11'0 0.0
2018-Jun-17 18:31N 49°29' E 000°11'0 0.5
2018-Jun-17 18:00N 49°29' E 000°10'0 0.1
2018-Jun-17 17:30N 49°29' E 000°10'1 2.3
2018-Jun-17 17:00N 49°28' E 000°09'4 8.6
2018-Jun-17 16:30N 49°30' E 000°02'510.7
2018-Jun-17 16:00N 49°31' W 000°06'2 4.9
2018-Jun-17 15:30N 49°33' W 000°08'0 0.1
2018-Jun-17 15:00N 49°33' W 000°07'0 0.0
2018-Jun-17 14:30N 49°33' W 000°07'0 0.0
2018-Jun-17 14:00N 49°33' W 000°07'0 0.0
2018-Jun-17 13:30N 49°33' W 000°07'0 0.0
2018-Jun-17 13:00N 49°33' W 000°07'0 0.0
2018-Jun-17 12:30N 49°33' W 000°07'0 0.0
2018-Jun-17 12:00N 49°33' W 000°07'0 0.0
2018-Jun-17 11:30N 49°33' W 000°07'0 0.0
2018-Jun-17 11:00N 49°33' W 000°07'0 0.0
2018-Jun-17 10:30N 49°33' W 000°07'0 0.3
2018-Jun-17 10:01N 49°33' W 000°08'3 6.5
2018-Jun-17 09:31N 49°33' W 000°13'5 9.4
2018-Jun-17 09:00N 49°35' W 000°20'5 9.4
2018-Jun-17 08:31N 49°36' W 000°26'4 8.9
2018-Jun-17 08:01N 49°38' W 000°32'4 8.3
2018-Jun-17 07:31N 49°41' W 000°38'4 7.7
2018-Jun-17 07:01N 49°43' W 000°43'3 6.9
2018-Jun-17 06:31N 49°45' W 000°46'4 7.7
2018-Jun-17 06:01N 49°49' W 000°46'611.9
2018-Jun-17 05:30N 49°55' W 000°44'612.2
2018-Jun-17 05:00N 50°01' W 000°43'612.5
2018-Jun-17 04:30N 50°05' W 000°35'714.3
2018-Jun-17 04:00N 50°08' W 000°25'713.9
2018-Jun-17 03:30N 50°11' W 000°15'612.9
2018-Jun-17 03:00N 50°13' W 000°06'611.8
2018-Jun-17 02:30N 50°19' W 000°03'611.9
2018-Jun-17 01:59N 50°25' W 000°03'1410.2
2018-Jun-17 00:34N 50°32' E 000°17'110.1
2018-Jun-17 00:30N 50°32' E 000°18'510.0
2018-Jun-16 23:59N 50°33' E 000°26'5 9.6
2018-Jun-16 23:30N 50°34' E 000°33'4 9.2
2018-Jun-16 23:00N 50°37' E 000°39'5 9.6
2018-Jun-16 22:30N 50°39' E 000°45'510.3
2018-Jun-16 22:00N 50°42' E 000°52'611.1
2018-Jun-16 21:30N 50°45' E 000°59'612.1
2018-Jun-16 21:00N 50°49' E 001°07'613.0
2018-Jun-16 20:30N 50°53' E 001°15'713.9
2018-Jun-16 20:01N 50°58' E 001°22'713.7
2018-Jun-16 19:30N 51°03' E 001°29'612.7
2018-Jun-16 19:00N 51°08' E 001°35'611.1
2018-Jun-16 18:30N 51°14' E 001°38'611.7
2018-Jun-16 18:00N 51°19' E 001°36'612.0
2018-Jun-16 17:30N 51°25' E 001°32'611.4
2018-Jun-16 17:01N 51°28' E 001°24'816.0
2018-Jun-16 16:31N 51°29' E 001°12'815.7
2018-Jun-16 16:00N 51°29' E 000°59'917.5
2018-Jun-16 15:30N 51°30' E 000°45'714.8
2018-Jun-16 15:01N 51°30' E 000°33'611.1
2018-Jun-16 14:30N 51°27' E 000°26'4 7.3
2018-Jun-16 14:00N 51°27' E 000°20'0 0.1
2018-Jun-16 13:31N 51°27' E 000°20'0 0.0
2018-Jun-16 13:00N 51°27' E 000°20'0 0.0
2018-Jun-16 12:31N 51°27' E 000°20'0 0.0
2018-Jun-16 12:00N 51°27' E 000°20'0 0.0
2018-Jun-16 11:30N 51°27' E 000°20'0 0.0
2018-Jun-16 11:00N 51°27' E 000°20'0 0.0
2018-Jun-16 10:30N 51°27' E 000°20'0 0.0
2018-Jun-16 10:00N 51°27' E 000°20'0 0.0
2018-Jun-16 09:30N 51°27' E 000°20'0 0.0
2018-Jun-16 09:01N 51°27' E 000°20'0 0.0
2018-Jun-16 08:31N 51°27' E 000°20'0 0.0
2018-Jun-16 08:01N 51°27' E 000°20'0 0.0
2018-Jun-16 07:30N 51°27' E 000°20'0 0.0
2018-Jun-16 07:00N 51°27' E 000°20'0 0.0
2018-Jun-16 06:31N 51°27' E 000°20'0 0.0
2018-Jun-16 06:01N 51°27' E 000°20'0 0.0
2018-Jun-16 05:31N 51°27' E 000°20'1 1.9
2018-Jun-16 05:01N 51°27' E 000°21'3 6.1
2018-Jun-16 04:31N 51°27' E 000°26'5 9.6
2018-Jun-16 04:00N 51°30' E 000°32'713.4
2018-Jun-16 03:30N 51°30' E 000°43'712.9
2018-Jun-16 03:00N 51°29' E 000°53'612.9
2018-Jun-16 02:31N 51°31' E 001°03'714.9
2018-Jun-16 02:00N 51°34' E 001°14'714.7
2018-Jun-16 01:31N 51°39' E 001°23'714.5
2018-Jun-16 01:00N 51°45' E 001°30'714.5
2018-Jun-16 00:30N 51°51' E 001°36'510.4
2018-Jun-16 00:00N 51°52' E 001°44'3 6.4
2018-Jun-15 23:30N 51°51' E 001°49'612.3
2018-Jun-15 23:00N 51°45' E 001°49'612.6
2018-Jun-15 22:30N 51°39' E 001°51'612.4
2018-Jun-15 22:00N 51°32' E 001°51'611.1
2018-Jun-15 21:30N 51°28' E 001°56'612.2
2018-Jun-15 21:00N 51°25' E 002°04'612.8
2018-Jun-15 20:30N 51°22' E 002°14'612.9
2018-Jun-15 20:00N 51°21' E 002°24'713.3
2018-Jun-15 19:30N 51°22' E 002°35'611.9
2018-Jun-15 19:00N 51°22' E 002°44'510.8
2018-Jun-15 18:30N 51°22' E 002°53'816.1
2018-Jun-15 18:00N 51°24' E 003°05'917.2
2018-Jun-15 17:30N 51°24' E 003°19'816.7
2018-Jun-15 17:00N 51°26' E 003°32'611.7
2018-Jun-15 16:30N 51°25' E 003°42'612.7
2018-Jun-15 16:00N 51°21' E 003°49'611.5
2018-Jun-15 15:30N 51°24' E 003°57'3 6.6
2018-Jun-15 15:00N 51°25' E 004°02'4 8.1
2018-Jun-15 14:30N 51°22' E 004°07'4 7.4
2018-Jun-15 14:01N 51°23' E 004°13'4 8.8
2018-Jun-15 13:30N 51°19' E 004°16'3 5.6
2018-Jun-15 13:00N 51°16' E 004°17'0 0.5
2018-Jun-15 12:31N 51°16' E 004°17'0 0.8
2018-Jun-15 12:00N 51°16' E 004°16'1 2.6
2018-Jun-15 11:30N 51°16' E 004°14'0 0.4
2018-Jun-15 10:58N 51°15' E 004°14'0 0.0
2018-Jun-15 10:22N 51°15' E 004°14'0 0.0
2018-Jun-15 09:58N 51°15' E 004°14'0 0.0
2018-Jun-15 09:28N 51°15' E 004°14'0 0.0
2018-Jun-15 08:55N 51°15' E 004°14'0 0.0
2018-Jun-15 08:28N 51°15' E 004°14'0 0.0
2018-Jun-15 07:58N 51°15' E 004°14'0 0.0
2018-Jun-15 07:28N 51°15' E 004°14'0 0.0
2018-Jun-15 06:58N 51°15' E 004°14'0 0.0
2018-Jun-15 06:28N 51°15' E 004°14'0 0.0
2018-Jun-15 05:58N 51°15' E 004°14'0 0.0
2018-Jun-15 05:28N 51°15' E 004°14'0 0.0
2018-Jun-15 04:58N 51°15' E 004°14'0 0.0
2018-Jun-15 04:28N 51°15' E 004°14'0 0.0
2018-Jun-15 03:58N 51°15' E 004°14'0 0.0
2018-Jun-15 03:28N 51°15' E 004°14'0 0.0
2018-Jun-15 02:58N 51°15' E 004°14'0 0.0
2018-Jun-15 02:28N 51°15' E 004°14'0 0.0
2018-Jun-15 01:55N 51°15' E 004°14'0 0.0
2018-Jun-15 01:28N 51°15' E 004°14'0 0.0
2018-Jun-15 00:58N 51°15' E 004°14'0 0.0
2018-Jun-15 00:25N 51°15' E 004°14'0 0.0
2018-Jun-14 23:58N 51°15' E 004°14'0 0.0
2018-Jun-14 23:28N 51°15' E 004°14'0 0.0
2018-Jun-14 22:58N 51°15' E 004°14'0 0.0
2018-Jun-14 22:28N 51°15' E 004°14'0 0.0
2018-Jun-14 21:55N 51°15' E 004°14'0 0.0
2018-Jun-14 21:28N 51°15' E 004°14'0 0.0
2018-Jun-14 20:58N 51°15' E 004°14'0 0.0
2018-Jun-14 20:28N 51°15' E 004°14'0 0.0
2018-Jun-14 19:58N 51°15' E 004°14'0 0.0
2018-Jun-14 19:28N 51°15' E 004°14'0 0.0
2018-Jun-14 18:58N 51°15' E 004°14'0 0.0
2018-Jun-14 18:28N 51°15' E 004°14'0 0.0
2018-Jun-14 17:58N 51°15' E 004°14'0 0.0
2018-Jun-14 17:28N 51°15' E 004°14'0 0.0
2018-Jun-14 16:58N 51°15' E 004°14'0 0.0
2018-Jun-14 16:28N 51°15' E 004°14'0 0.0
2018-Jun-14 15:58N 51°15' E 004°14'0 0.0
2018-Jun-14 15:28N 51°15' E 004°14'0 0.0
2018-Jun-14 14:58N 51°15' E 004°14'0 0.0
2018-Jun-14 14:28N 51°15' E 004°14'0 0.0
2018-Jun-14 13:58N 51°15' E 004°14'0 0.0
2018-Jun-14 13:28N 51°15' E 004°14'0 0.0
2018-Jun-14 12:58N 51°15' E 004°14'0 0.0
2018-Jun-14 12:28N 51°15' E 004°14'0 0.0
2018-Jun-14 11:58N 51°15' E 004°14'0 0.0
2018-Jun-14 11:28N 51°15' E 004°14'0 0.0
2018-Jun-14 10:58N 51°15' E 004°14'0 0.0
2018-Jun-14 10:28N 51°15' E 004°14'0 0.0
2018-Jun-14 09:58N 51°15' E 004°14'0 0.0
2018-Jun-14 09:28N 51°15' E 004°14'0 0.0
2018-Jun-14 08:58N 51°15' E 004°14'0 0.0
2018-Jun-14 08:28N 51°15' E 004°14'0 0.0
2018-Jun-14 07:58N 51°15' E 004°14'0 0.0
2018-Jun-14 07:28N 51°15' E 004°14'0 0.0
2018-Jun-14 06:58N 51°15' E 004°14'0 0.0
2018-Jun-14 06:28N 51°15' E 004°14'0 0.0
2018-Jun-14 05:58N 51°15' E 004°14'0 0.0
2018-Jun-14 05:28N 51°15' E 004°14'0 0.0
2018-Jun-14 04:58N 51°15' E 004°14'0 0.0
2018-Jun-14 04:28N 51°15' E 004°14'0 0.0
2018-Jun-14 03:58N 51°15' E 004°14'0 0.0
2018-Jun-14 03:28N 51°15' E 004°14'0 0.0
2018-Jun-14 02:58N 51°15' E 004°14'0 0.0
2018-Jun-14 02:28N 51°15' E 004°14'0 0.0
2018-Jun-14 01:58N 51°15' E 004°14'0 0.0
2018-Jun-14 01:28N 51°15' E 004°14'0 1.0
2018-Jun-14 01:00N 51°16' E 004°14'1 2.1
2018-Jun-14 00:31N 51°17' E 004°15'0 0.0
2018-Jun-14 00:01N 51°17' E 004°15'0 0.0
2018-Jun-13 23:31N 51°17' E 004°15'2 3.3
2018-Jun-13 23:01N 51°18' E 004°16'4 8.2
2018-Jun-13 22:31N 51°22' E 004°13'4 8.5
2018-Jun-13 22:00N 51°22' E 004°07'612.1
2018-Jun-13 21:30N 51°26' E 003°59'713.7
2018-Jun-13 21:00N 51°21' E 003°52'713.3
2018-Jun-13 20:30N 51°24' E 003°43'510.6
2018-Jun-13 20:00N 51°26' E 003°35'714.5
2018-Jun-13 19:30N 51°24' E 003°23'612.9
2018-Jun-13 19:00N 51°24' E 003°13'612.1
2018-Jun-13 18:30N 51°24' E 003°03'4 8.3
2018-Jun-13 18:00N 51°28' E 003°01'611.5
2018-Jun-13 17:31N 51°33' E 003°07'815.1
2018-Jun-13 17:01N 51°40' E 003°12'510.9
2018-Jun-13 16:30N 51°45' E 003°15'714.0
2018-Jun-13 16:00N 51°52' E 003°18'713.9
2018-Jun-13 15:30N 51°59' E 003°20'611.6
2018-Jun-13 15:00N 52°04' E 003°21'510.8
2018-Jun-13 14:30N 52°10' E 003°22'510.7
2018-Jun-13 14:00N 52°15' E 003°24'510.7
2018-Jun-13 13:30N 52°20' E 003°25'511.1
2018-Jun-13 13:00N 52°26' E 003°26'611.6
2018-Jun-13 12:30N 52°31' E 003°28'612.5
2018-Jun-13 12:00N 52°37' E 003°32'713.8
2018-Jun-13 11:30N 52°43' E 003°39'814.5
2018-Jun-13 10:58N 52°48' E 003°47'715.8
2018-Jun-13 10:30N 52°54' E 003°55'1316.2
2018-Jun-13 09:41N 53°03' E 004°12'316.0
2018-Jun-13 09:30N 53°04' E 004°16'816.0
2018-Jun-13 09:00N 53°11' E 004°23'816.6
2018-Jun-13 08:30N 53°19' E 004°29'816.3
2018-Jun-13 08:00N 53°26' E 004°36'714.8
2018-Jun-13 07:30N 53°30' E 004°45'714.6
2018-Jun-13 07:01N 53°33' E 004°57'714.4
2018-Jun-13 06:30N 53°36' E 005°08'714.2
2018-Jun-13 06:00N 53°38' E 005°19'714.5
2018-Jun-13 05:30N 53°40' E 005°31'8513.9
2018-Jun-12 23:21N 53°52' E 007°54'513.9
2018-Jun-12 23:00N 53°51' E 008°02'714.5
2018-Jun-12 22:30N 53°46' E 008°11'713.9
2018-Jun-12 22:00N 53°42' E 008°20'612.8
2018-Jun-12 21:30N 53°38' E 008°28'4 8.5
2018-Jun-12 21:00N 53°34' E 008°32'0 0.9
2018-Jun-12 20:30N 53°34' E 008°33'0 0.7
2018-Jun-12 20:00N 53°35' E 008°33'0 0.2
2018-Jun-12 19:29N 53°35' E 008°33'0 0.0
2018-Jun-12 18:59N 53°35' E 008°33'0 0.0
2018-Jun-12 18:29N 53°35' E 008°33'0 0.0
2018-Jun-12 17:59N 53°35' E 008°33'0 0.0
2018-Jun-12 17:29N 53°35' E 008°33'0 0.0
2018-Jun-12 16:59N 53°35' E 008°33'0 0.0
2018-Jun-12 16:29N 53°35' E 008°33'0 0.0
2018-Jun-12 15:59N 53°35' E 008°33'0 0.0
2018-Jun-12 15:29N 53°35' E 008°33'0 0.0
2018-Jun-12 14:59N 53°35' E 008°33'0 0.0
2018-Jun-12 14:29N 53°35' E 008°33'0 0.0
2018-Jun-12 13:59N 53°35' E 008°33'0 0.0
2018-Jun-12 13:29N 53°35' E 008°33'0 0.0
2018-Jun-12 12:59N 53°35' E 008°33'0 0.0
2018-Jun-12 12:29N 53°35' E 008°33'0 0.0
2018-Jun-12 11:59N 53°35' E 008°33'0 0.0
2018-Jun-12 11:29N 53°35' E 008°33'0 0.0
2018-Jun-12 10:59N 53°35' E 008°33'0 0.0
2018-Jun-12 10:29N 53°35' E 008°33'0 0.0
2018-Jun-12 09:59N 53°35' E 008°33'0 0.0
2018-Jun-12 09:29N 53°35' E 008°33'0 0.0
2018-Jun-12 08:59N 53°35' E 008°33'0 0.0
2018-Jun-12 08:29N 53°35' E 008°33'0 0.0
2018-Jun-12 07:59N 53°35' E 008°33'0 0.0
2018-Jun-12 07:29N 53°35' E 008°33'0 0.0
2018-Jun-12 06:59N 53°35' E 008°33'0 0.0
2018-Jun-12 06:29N 53°35' E 008°33'0 0.0
2018-Jun-12 05:59N 53°35' E 008°33'0 0.0
2018-Jun-12 05:29N 53°35' E 008°33'0 0.0
2018-Jun-12 04:59N 53°35' E 008°33'0 0.0
2018-Jun-12 04:29N 53°35' E 008°33'0 0.0
2018-Jun-12 03:59N 53°35' E 008°33'0 0.0
2018-Jun-12 03:29N 53°35' E 008°33'0 0.0
2018-Jun-12 02:59N 53°35' E 008°33'0 0.0
2018-Jun-12 02:29N 53°35' E 008°33'0 0.0
2018-Jun-12 01:59N 53°35' E 008°33'0 0.0
2018-Jun-12 01:29N 53°35' E 008°33'0 0.0
2018-Jun-12 00:59N 53°35' E 008°33'0 0.0
2018-Jun-12 00:29N 53°35' E 008°33'0 0.0
2018-Jun-11 23:59N 53°35' E 008°33'0 0.0
2018-Jun-11 23:29N 53°35' E 008°33'0 0.0
2018-Jun-11 22:59N 53°35' E 008°33'0 0.0
2018-Jun-11 22:29N 53°35' E 008°33'0 0.0
2018-Jun-11 21:59N 53°35' E 008°33'0 0.0
2018-Jun-11 21:29N 53°35' E 008°33'0 0.0
2018-Jun-11 20:59N 53°35' E 008°33'0 0.0
2018-Jun-11 20:29N 53°35' E 008°33'0 0.0
2018-Jun-11 19:59N 53°35' E 008°33'0 0.0
2018-Jun-11 19:29N 53°35' E 008°33'0 0.0
2018-Jun-11 18:59N 53°35' E 008°33'0 0.0
2018-Jun-11 18:29N 53°35' E 008°33'0 0.0
2018-Jun-11 17:59N 53°35' E 008°33'0 0.0
2018-Jun-11 17:29N 53°35' E 008°33'0 0.0
2018-Jun-11 16:59N 53°35' E 008°33'0 0.0
2018-Jun-11 16:29N 53°35' E 008°33'0 1.0
2018-Jun-11 16:01N 53°34' E 008°33'0 0.0
2018-Jun-11 15:31N 53°34' E 008°33'0 0.8
2018-Jun-11 15:00N 53°34' E 008°32'3 6.9
2018-Jun-11 14:30N 53°37' E 008°29'510.8
2018-Jun-11 14:00N 53°41' E 008°22'712.4
2018-Jun-11 13:28N 53°45' E 008°13'511.7
2018-Jun-11 13:01N 53°49' E 008°07'611.9
2018-Jun-11 12:30N 53°51' E 007°58'510.9
2018-Jun-11 12:00N 53°52' E 007°49'3 5.0
2018-Jun-11 11:28N 53°55' E 007°47'0 0.5
2018-Jun-11 10:58N 53°54' E 007°47'0 0.0
2018-Jun-11 09:43N 53°54' E 007°47'0 0.0
2018-Jun-11 09:19N 53°54' E 007°47'0 0.0
2018-Jun-11 06:07N 53°54' E 007°47'0 0.2
2018-Jun-11 05:58N 53°54' E 007°47'0 0.0
2018-Jun-11 05:16N 53°54' E 007°47'0 0.0
2018-Jun-11 04:55N 53°54' E 007°47'0 0.0
2018-Jun-11 04:01N 53°54' E 007°47'0 0.0
2018-Jun-11 03:49N 53°54' E 007°47'0 0.0
2018-Jun-11 03:28N 53°54' E 007°47'0 0.0
2018-Jun-11 02:55N 53°54' E 007°47'0 0.0
2018-Jun-11 02:28N 53°54' E 007°47'0 0.0
2018-Jun-11 01:58N 53°54' E 007°47'0 0.0
2018-Jun-10 23:58N 53°54' E 007°47'0 0.0
2018-Jun-10 22:25N 53°54' E 007°47'0 0.0
2018-Jun-10 21:34N 53°54' E 007°47'0 0.1
2018-Jun-10 21:28N 53°54' E 007°47'0 0.0
2018-Jun-10 19:46N 53°54' E 007°47'0 0.0
2018-Jun-10 19:10N 53°54' E 007°47'0 0.1
2018-Jun-10 18:49N 53°54' E 007°47'0 0.1
2018-Jun-10 18:22N 53°54' E 007°47'0 0.0
2018-Jun-10 17:49N 53°54' E 007°47'0 0.0
2018-Jun-10 17:22N 53°54' E 007°47'0 0.0
2018-Jun-10 16:52N 53°54' E 007°47'0 0.0
2018-Jun-10 16:25N 53°54' E 007°47'0 0.0
2018-Jun-10 15:37N 53°54' E 007°47'0 0.0
2018-Jun-10 15:25N 53°54' E 007°47'0 0.1
2018-Jun-10 14:58N 53°54' E 007°47'0 0.0
2018-Jun-10 13:58N 53°54' E 007°47'0 0.3
2018-Jun-10 13:29N 53°55' E 007°47'3 5.7
2018-Jun-10 12:59N 53°55' E 007°42'611.5
2018-Jun-10 12:30N 53°54' E 007°32'1811.4
2018-Jun-10 10:55N 53°50' E 007°03'511.4
2018-Jun-10 10:29N 53°49' E 006°54'611.6
2018-Jun-10 09:58N 53°48' E 006°45'711.7
2018-Jun-10 09:25N 53°47' E 006°34'611.6
2018-Jun-10 08:55N 53°45' E 006°24'611.7
2018-Jun-10 08:25N 53°43' E 006°15'512.0
2018-Jun-10 08:00N 53°42' E 006°07'612.1
2018-Jun-10 07:30N 53°40' E 005°57'612.3
2018-Jun-10 07:00N 53°38' E 005°47'612.4
2018-Jun-10 06:30N 53°36' E 005°37'612.6
2018-Jun-10 06:00N 53°34' E 005°27'612.6
2018-Jun-10 05:30N 53°33' E 005°17'612.6
2018-Jun-10 05:00N 53°31' E 005°07'612.8
2018-Jun-10 04:30N 53°28' E 004°57'713.0
2018-Jun-10 04:00N 53°25' E 004°47'612.4
2018-Jun-10 03:30N 53°21' E 004°40'712.9
2018-Jun-10 03:00N 53°15' E 004°35'713.2
2018-Jun-10 02:27N 53°09' E 004°29'613.1
2018-Jun-10 02:00N 53°04' E 004°24'713.3
2018-Jun-10 01:30N 52°58' E 004°19'713.4
2018-Jun-10 01:00N 52°52' E 004°15'713.5
2018-Jun-10 00:30N 52°46' E 004°09'713.5
2018-Jun-10 00:00N 52°40' E 004°03'713.4
2018-Jun-09 23:30N 52°35' E 003°57'713.4
2018-Jun-09 23:00N 52°28' E 003°54'713.5
2018-Jun-09 22:30N 52°21' E 003°52'713.1
2018-Jun-09 22:00N 52°15' E 003°53'612.8
2018-Jun-09 21:30N 52°09' E 003°54'611.5
2018-Jun-09 21:01N 52°03' E 003°52'5 9.1
2018-Jun-09 20:30N 52°01' E 003°58'612.6
2018-Jun-09 20:00N 51°58' E 004°07'611.2
2018-Jun-09 19:30N 51°55' E 004°15'4 8.7
2018-Jun-09 19:01N 51°54' E 004°21'2 4.5
2018-Jun-09 18:31N 51°53' E 004°25'0 0.1
2018-Jun-09 18:00N 51°53' E 004°25'0 0.0
2018-Jun-09 17:30N 51°53' E 004°25'0 0.0
2018-Jun-09 17:00N 51°53' E 004°25'0 0.0
2018-Jun-09 16:30N 51°53' E 004°25'0 0.0
2018-Jun-09 16:00N 51°53' E 004°25'0 0.0
2018-Jun-09 15:30N 51°53' E 004°25'0 0.0
2018-Jun-09 14:30N 51°53' E 004°25'0 0.0
2018-Jun-09 14:00N 51°53' E 004°25'0 0.0
2018-Jun-09 13:30N 51°53' E 004°25'0 0.0
2018-Jun-09 13:00N 51°53' E 004°25'0 0.0
2018-Jun-09 12:30N 51°53' E 004°25'0 0.0
2018-Jun-09 12:00N 51°53' E 004°25'0 0.0
2018-Jun-09 11:30N 51°53' E 004°25'0 0.0
2018-Jun-09 11:00N 51°53' E 004°25'0 0.0
2018-Jun-09 10:30N 51°53' E 004°25'0 0.0
2018-Jun-09 10:00N 51°53' E 004°25'0 0.0
2018-Jun-09 09:30N 51°53' E 004°25'0 0.0
2018-Jun-09 09:00N 51°53' E 004°25'0 0.0
2018-Jun-09 08:30N 51°53' E 004°25'0 0.0
2018-Jun-09 08:00N 51°53' E 004°25'0 0.0
2018-Jun-09 07:30N 51°53' E 004°25'0 0.0
2018-Jun-09 07:00N 51°53' E 004°25'0 0.0
2018-Jun-09 06:30N 51°53' E 004°25'0 0.0
2018-Jun-09 06:00N 51°53' E 004°25'0 0.0
2018-Jun-09 05:30N 51°53' E 004°25'0 0.0
2018-Jun-09 05:00N 51°53' E 004°25'0 0.0
2018-Jun-09 04:30N 51°53' E 004°25'0 0.0
2018-Jun-09 04:00N 51°53' E 004°25'0 0.0
2018-Jun-09 03:30N 51°53' E 004°25'0 0.0
2018-Jun-09 03:00N 51°53' E 004°25'0 0.0
2018-Jun-09 02:30N 51°53' E 004°25'0 0.0
2018-Jun-09 02:00N 51°53' E 004°25'0 0.0
2018-Jun-09 01:30N 51°53' E 004°25'0 0.0
2018-Jun-09 01:00N 51°53' E 004°25'0 0.0
2018-Jun-09 00:30N 51°53' E 004°25'0 0.0
2018-Jun-09 00:00N 51°53' E 004°25'0 0.0
2018-Jun-08 23:30N 51°53' E 004°25'0 0.0
2018-Jun-08 23:00N 51°53' E 004°25'0 0.0
2018-Jun-08 22:30N 51°53' E 004°25'0 0.0
2018-Jun-08 22:00N 51°53' E 004°25'0 0.0
2018-Jun-08 21:27N 51°53' E 004°25'0 0.0
2018-Jun-08 21:00N 51°53' E 004°25'0 0.0
2018-Jun-08 20:30N 51°53' E 004°25'0 0.0
2018-Jun-08 20:00N 51°53' E 004°25'0 0.0
2018-Jun-08 19:30N 51°53' E 004°25'0 0.0
2018-Jun-08 19:00N 51°53' E 004°25'0 0.0
2018-Jun-08 18:30N 51°53' E 004°25'0 0.0
2018-Jun-08 18:00N 51°53' E 004°25'0 0.0
2018-Jun-08 17:30N 51°53' E 004°25'0 0.0
2018-Jun-08 17:00N 51°53' E 004°25'0 0.0
2018-Jun-08 16:27N 51°53' E 004°25'0 0.0
2018-Jun-08 16:00N 51°53' E 004°25'0 0.0
2018-Jun-08 15:30N 51°53' E 004°25'  

Dump ship's entire track history